MLISHS1 KAUS-KORL
Flight info
| Callsign | MLISHS1 |
|---|---|
| Flight time | 1h 50m |
| Altitude | 27000 |
| Route | PUFER J27 LFK J50 CEW J2 DEFUN OTK LEESE3 |
| Aircraft | F16/M-VRDW/C |
Departure
| Time | 2026-05-04 21:28 |
|---|---|
| Airport | Austin Bergstrom International Airport (KAUS) |
Arrival
| Time | 2026-05-04 23:18 |
|---|---|
| Airport | Orlando Executive Airport (KORL) |
| Time | Latitude | Longitude | Altitude | Speed | Heading |
|---|---|---|---|---|---|
| 2026-05-04 21:12 | 30.17716 | -97.67387 | 546 ft | 0 kts | 0° |
| 2026-05-04 21:20 | 30.17726 | -97.67386 | 546 ft | 5 kts | 8° |
| 2026-05-04 21:20 | 30.17738 | -97.67336 | 546 ft | 8 kts | 91° |
| 2026-05-04 21:20 | 30.17791 | -97.67323 | 546 ft | 11 kts | 358° |
| 2026-05-04 21:20 | 30.17861 | -97.67321 | 546 ft | 10 kts | 5° |
| 2026-05-04 21:21 | 30.17945 | -97.67321 | 546 ft | 13 kts | 358° |
| 2026-05-04 21:21 | 30.18049 | -97.67309 | 546 ft | 16 kts | 36° |
| 2026-05-04 21:21 | 30.18170 | -97.67287 | 546 ft | 19 kts | 358° |
| 2026-05-04 21:21 | 30.18317 | -97.67291 | 546 ft | 22 kts | 358° |
| 2026-05-04 21:22 | 30.18486 | -97.67295 | 546 ft | 25 kts | 359° |
| 2026-05-04 21:22 | 30.18675 | -97.67300 | 546 ft | 28 kts | 358° |
| 2026-05-04 21:22 | 30.18877 | -97.67305 | 546 ft | 29 kts | 358° |
| 2026-05-04 21:22 | 30.19062 | -97.67310 | 546 ft | 25 kts | 358° |
| 2026-05-04 21:23 | 30.19249 | -97.67315 | 546 ft | 28 kts | 359° |
| 2026-05-04 21:23 | 30.19445 | -97.67321 | 546 ft | 28 kts | 358° |
| 2026-05-04 21:23 | 30.19635 | -97.67326 | 546 ft | 26 kts | 359° |
| 2026-05-04 21:23 | 30.19811 | -97.67331 | 546 ft | 26 kts | 358° |
| 2026-05-04 21:24 | 30.19997 | -97.67336 | 546 ft | 23 kts | 357° |
| 2026-05-04 21:24 | 30.20144 | -97.67341 | 546 ft | 22 kts | 358° |
| 2026-05-04 21:24 | 30.20309 | -97.67345 | 546 ft | 25 kts | 359° |
| 2026-05-04 21:24 | 30.20491 | -97.67348 | 546 ft | 24 kts | 358° |
| 2026-05-04 21:25 | 30.20667 | -97.67356 | 546 ft | 22 kts | 348° |
| 2026-05-04 21:25 | 30.20815 | -97.67402 | 546 ft | 23 kts | 345° |
| 2026-05-04 21:25 | 30.20985 | -97.67454 | 546 ft | 26 kts | 344° |
| 2026-05-04 21:25 | 30.21167 | -97.67510 | 546 ft | 27 kts | 345° |
| 2026-05-04 21:26 | 30.21333 | -97.67581 | 546 ft | 20 kts | 307° |
| 2026-05-04 21:26 | 30.21348 | -97.67750 | 546 ft | 23 kts | 268° |
| 2026-05-04 21:26 | 30.21345 | -97.67878 | 546 ft | 13 kts | 268° |
| 2026-05-04 21:26 | 30.21308 | -97.67937 | 546 ft | 0 kts | 176° |
| 2026-05-04 21:27 | 30.21283 | -97.67935 | 546 ft | 46 kts | 178° |
| 2026-05-04 21:27 | 30.19817 | -97.67897 | 618 ft | 373 kts | 179° |
| 2026-05-04 21:28 | 30.17115 | -97.67863 | 5536 ft | 539 kts | 182° |
| 2026-05-04 21:28 | 30.14257 | -97.68304 | 9960 ft | 522 kts | 186° |
| 2026-05-04 21:28 | 30.10551 | -97.68002 | 10060 ft | 559 kts | 159° |
| 2026-05-04 21:28 | 30.07462 | -97.65266 | 9885 ft | 575 kts | 121° |
| 2026-05-04 21:29 | 30.06175 | -97.60959 | 10115 ft | 572 kts | 94° |
| 2026-05-04 21:29 | 30.06787 | -97.56486 | 10524 ft | 560 kts | 69° |
| 2026-05-04 21:29 | 30.08134 | -97.52589 | 14055 ft | 515 kts | 69° |
| 2026-05-04 21:29 | 30.09314 | -97.49133 | 18052 ft | 460 kts | 70° |
| 2026-05-04 21:30 | 30.10345 | -97.46070 | 21465 ft | 405 kts | 69° |
| 2026-05-04 21:30 | 30.11333 | -97.43107 | 23481 ft | 424 kts | 69° |
| 2026-05-04 21:30 | 30.12403 | -97.39759 | 24468 ft | 479 kts | 69° |
| 2026-05-04 21:30 | 30.13613 | -97.35925 | 25330 ft | 526 kts | 69° |
| 2026-05-04 21:31 | 30.16235 | -97.27289 | 26802 ft | 609 kts | 70° |
| 2026-05-04 21:31 | 30.17617 | -97.22555 | 26980 ft | 630 kts | 70° |
| 2026-05-04 21:31 | 30.18995 | -97.17783 | 26970 ft | 614 kts | 70° |
| 2026-05-04 21:32 | 30.20311 | -97.13312 | 26978 ft | 568 kts | 68° |
| 2026-05-04 21:32 | 30.21646 | -97.09142 | 26993 ft | 548 kts | 65° |
| 2026-05-04 21:32 | 30.23070 | -97.05039 | 26990 ft | 547 kts | 63° |
| 2026-05-04 21:32 | 30.24488 | -97.00932 | 26994 ft | 548 kts | 64° |
| 2026-05-04 21:33 | 30.25847 | -96.96801 | 26991 ft | 549 kts | 64° |
| 2026-05-04 21:33 | 30.27165 | -96.92705 | 26987 ft | 550 kts | 64° |
| 2026-05-04 21:33 | 30.28510 | -96.88548 | 26986 ft | 549 kts | 64° |
| 2026-05-04 21:33 | 30.29869 | -96.84436 | 26985 ft | 549 kts | 63° |
| 2026-05-04 21:34 | 30.31245 | -96.80287 | 26983 ft | 550 kts | 64° |
| 2026-05-04 21:34 | 30.32618 | -96.76152 | 26984 ft | 549 kts | 63° |
| 2026-05-04 21:34 | 30.34047 | -96.72025 | 26977 ft | 549 kts | 62° |
| 2026-05-04 21:34 | 30.35484 | -96.67920 | 26971 ft | 550 kts | 62° |
| 2026-05-04 21:35 | 30.36910 | -96.63810 | 26966 ft | 550 kts | 62° |
| 2026-05-04 21:35 | 30.38380 | -96.59727 | 26966 ft | 549 kts | 61° |
| 2026-05-04 21:35 | 30.39891 | -96.55660 | 26958 ft | 550 kts | 61° |
| 2026-05-04 21:35 | 30.41399 | -96.51592 | 26955 ft | 550 kts | 61° |
| 2026-05-04 21:36 | 30.42934 | -96.47552 | 26954 ft | 549 kts | 59° |
| 2026-05-04 21:36 | 30.44526 | -96.43510 | 26954 ft | 549 kts | 59° |
| 2026-05-04 21:36 | 30.46121 | -96.39484 | 26954 ft | 549 kts | 59° |
| 2026-05-04 21:36 | 30.47768 | -96.35503 | 26955 ft | 549 kts | 58° |
| 2026-05-04 21:37 | 30.49467 | -96.31534 | 26943 ft | 548 kts | 58° |
| 2026-05-04 21:37 | 30.51193 | -96.27566 | 26943 ft | 547 kts | 56° |
| 2026-05-04 21:37 | 30.52979 | -96.23709 | 26943 ft | 546 kts | 55° |
| 2026-05-04 21:37 | 30.54816 | -96.19865 | 26943 ft | 545 kts | 54° |
| 2026-05-04 21:38 | 30.56700 | -96.16080 | 26944 ft | 544 kts | 53° |
| 2026-05-04 21:38 | 30.58711 | -96.12341 | 26947 ft | 541 kts | 50° |
| 2026-05-04 21:38 | 30.60789 | -96.08746 | 26951 ft | 540 kts | 50° |
| 2026-05-04 21:38 | 30.62882 | -96.05089 | 26955 ft | 541 kts | 52° |
| 2026-05-04 21:39 | 30.64487 | -96.01077 | 27005 ft | 549 kts | 64° |
| 2026-05-04 21:39 | 30.65816 | -95.96967 | 26966 ft | 548 kts | 63° |
| 2026-05-04 21:39 | 30.67251 | -95.92846 | 26964 ft | 548 kts | 63° |
| 2026-05-04 21:39 | 30.68667 | -95.88751 | 26965 ft | 548 kts | 63° |
| 2026-05-04 21:40 | 30.70109 | -95.84607 | 26967 ft | 548 kts | 62° |
| 2026-05-04 21:40 | 30.71557 | -95.80537 | 26967 ft | 547 kts | 61° |
| 2026-05-04 21:40 | 30.73077 | -95.76528 | 26967 ft | 546 kts | 60° |
| 2026-05-04 21:40 | 30.74648 | -95.72502 | 26966 ft | 546 kts | 60° |
| 2026-05-04 21:41 | 30.76287 | -95.68512 | 26967 ft | 544 kts | 57° |
| 2026-05-04 21:41 | 30.78001 | -95.64610 | 26967 ft | 544 kts | 56° |
| 2026-05-04 21:41 | 30.79809 | -95.60729 | 26968 ft | 542 kts | 54° |
| 2026-05-04 21:41 | 30.81699 | -95.56939 | 26968 ft | 541 kts | 53° |
| 2026-05-04 21:42 | 30.83542 | -95.53127 | 26979 ft | 544 kts | 60° |
| 2026-05-04 21:42 | 30.84885 | -95.48954 | 26984 ft | 548 kts | 64° |
| 2026-05-04 21:42 | 30.86214 | -95.44806 | 26971 ft | 548 kts | 63° |
| 2026-05-04 21:42 | 30.87593 | -95.40678 | 26969 ft | 548 kts | 63° |
| 2026-05-04 21:43 | 30.88949 | -95.36568 | 26969 ft | 548 kts | 63° |
| 2026-05-04 21:43 | 30.90325 | -95.32394 | 26957 ft | 549 kts | 64° |
| 2026-05-04 21:43 | 30.91687 | -95.28262 | 26953 ft | 549 kts | 64° |
| 2026-05-04 21:43 | 30.93079 | -95.24122 | 26951 ft | 548 kts | 63° |
| 2026-05-04 21:44 | 30.94511 | -95.20063 | 26951 ft | 547 kts | 62° |
| 2026-05-04 21:44 | 30.95963 | -95.15987 | 26951 ft | 547 kts | 62° |
| 2026-05-04 21:44 | 30.97439 | -95.11844 | 26953 ft | 546 kts | 61° |
| 2026-05-04 21:44 | 30.98952 | -95.07827 | 26955 ft | 545 kts | 60° |
| 2026-05-04 21:45 | 31.00504 | -95.03802 | 26958 ft | 545 kts | 60° |
| 2026-05-04 21:45 | 31.02073 | -94.99757 | 26961 ft | 544 kts | 59° |
| 2026-05-04 21:45 | 31.03712 | -94.95789 | 26962 ft | 543 kts | 58° |
| 2026-05-04 21:45 | 31.05403 | -94.91846 | 26962 ft | 543 kts | 58° |
| 2026-05-04 21:46 | 31.07123 | -94.87945 | 26963 ft | 542 kts | 57° |
| 2026-05-04 21:46 | 31.08921 | -94.84152 | 26963 ft | 541 kts | 56° |
| 2026-05-04 21:46 | 31.10794 | -94.80350 | 26966 ft | 540 kts | 54° |
| 2026-05-04 21:46 | 31.12773 | -94.76596 | 26969 ft | 538 kts | 52° |
| 2026-05-04 21:47 | 31.14741 | -94.72886 | 27017 ft | 539 kts | 61° |
| 2026-05-04 21:47 | 31.15897 | -94.68748 | 27045 ft | 545 kts | 79° |
| 2026-05-04 21:47 | 31.16114 | -94.64349 | 26997 ft | 547 kts | 85° |
| 2026-05-04 21:47 | 31.16284 | -94.59898 | 26974 ft | 547 kts | 84° |
| 2026-05-04 21:48 | 31.16528 | -94.55454 | 26971 ft | 547 kts | 83° |
| 2026-05-04 21:48 | 31.16792 | -94.51007 | 26972 ft | 548 kts | 83° |
| 2026-05-04 21:48 | 31.17069 | -94.46560 | 26974 ft | 548 kts | 83° |
| 2026-05-04 21:48 | 31.17359 | -94.42107 | 26976 ft | 548 kts | 83° |
| 2026-05-04 21:49 | 31.17559 | -94.37658 | 26979 ft | 550 kts | 85° |
| 2026-05-04 21:49 | 31.17674 | -94.33183 | 26974 ft | 550 kts | 86° |
| 2026-05-04 21:49 | 31.17767 | -94.28745 | 26972 ft | 551 kts | 86° |
| 2026-05-04 21:49 | 31.17871 | -94.24231 | 26972 ft | 551 kts | 86° |
| 2026-05-04 21:50 | 31.18003 | -94.19770 | 26973 ft | 551 kts | 85° |
| 2026-05-04 21:50 | 31.18181 | -94.15323 | 26973 ft | 550 kts | 84° |
| 2026-05-04 21:50 | 31.18430 | -94.10833 | 26974 ft | 550 kts | 83° |
| 2026-05-04 21:50 | 31.18706 | -94.06361 | 26974 ft | 550 kts | 83° |
| 2026-05-04 21:51 | 31.19079 | -94.01904 | 26975 ft | 549 kts | 81° |
| 2026-05-04 21:51 | 31.19533 | -93.97477 | 26975 ft | 549 kts | 80° |
| 2026-05-04 21:51 | 31.19740 | -93.93021 | 26994 ft | 551 kts | 87° |
| 2026-05-04 21:51 | 31.19805 | -93.88577 | 26978 ft | 550 kts | 86° |
| 2026-05-04 21:52 | 31.19942 | -93.84094 | 26977 ft | 551 kts | 85° |
| 2026-05-04 21:52 | 31.20101 | -93.79630 | 26978 ft | 551 kts | 85° |
| 2026-05-04 21:52 | 31.20271 | -93.75113 | 26980 ft | 551 kts | 85° |
| 2026-05-04 21:52 | 31.20448 | -93.70612 | 26982 ft | 551 kts | 85° |
| 2026-05-04 21:53 | 31.20635 | -93.66160 | 26984 ft | 551 kts | 84° |
| 2026-05-04 21:53 | 31.20851 | -93.61661 | 26986 ft | 551 kts | 84° |
| 2026-05-04 21:53 | 31.21145 | -93.57213 | 26989 ft | 551 kts | 81° |
| 2026-05-04 21:53 | 31.21547 | -93.52769 | 26991 ft | 550 kts | 87° |
| 2026-05-04 21:54 | 31.21570 | -93.48297 | 26999 ft | 551 kts | 87° |
| 2026-05-04 21:54 | 31.21617 | -93.43832 | 26991 ft | 551 kts | 86° |
| 2026-05-04 21:54 | 31.21688 | -93.39368 | 26990 ft | 552 kts | 86° |
| 2026-05-04 21:54 | 31.21767 | -93.34840 | 26991 ft | 552 kts | 86° |
| 2026-05-04 21:55 | 31.21855 | -93.30337 | 26981 ft | 552 kts | 86° |
| 2026-05-04 21:55 | 31.21949 | -93.25848 | 26981 ft | 552 kts | 86° |
| 2026-05-04 21:55 | 31.22050 | -93.21355 | 26981 ft | 552 kts | 86° |
| 2026-05-04 21:55 | 31.22156 | -93.16878 | 26982 ft | 553 kts | 86° |
| 2026-05-04 21:56 | 31.22269 | -93.12426 | 26982 ft | 553 kts | 86° |
| 2026-05-04 21:56 | 31.22392 | -93.07894 | 26983 ft | 553 kts | 86° |
| 2026-05-04 21:56 | 31.22527 | -93.03402 | 26984 ft | 553 kts | 86° |
| 2026-05-04 21:56 | 31.22662 | -92.98929 | 26985 ft | 553 kts | 86° |
| 2026-05-04 21:57 | 31.22789 | -92.94441 | 26986 ft | 553 kts | 86° |
| 2026-05-04 21:57 | 31.22934 | -92.89960 | 26987 ft | 553 kts | 86° |
| 2026-05-04 21:57 | 31.23105 | -92.85488 | 26988 ft | 553 kts | 86° |
| 2026-05-04 21:57 | 31.23288 | -92.81010 | 26991 ft | 553 kts | 85° |
| 2026-05-04 21:58 | 31.23529 | -92.76531 | 26995 ft | 553 kts | 84° |
| 2026-05-04 21:58 | 31.23789 | -92.72033 | 26998 ft | 553 kts | 84° |
| 2026-05-04 21:58 | 31.24035 | -92.67571 | 27001 ft | 553 kts | 84° |
| 2026-05-04 21:58 | 31.24320 | -92.63091 | 27004 ft | 553 kts | 83° |
| 2026-05-04 21:59 | 31.24676 | -92.58643 | 27005 ft | 552 kts | 82° |
| 2026-05-04 21:59 | 31.25055 | -92.54186 | 27005 ft | 553 kts | 82° |
| 2026-05-04 21:59 | 31.25430 | -92.49683 | 27009 ft | 553 kts | 85° |
| 2026-05-04 21:59 | 31.25464 | -92.45216 | 27012 ft | 553 kts | 88° |
| 2026-05-04 22:00 | 31.25534 | -92.40720 | 27008 ft | 553 kts | 87° |
| 2026-05-04 22:00 | 31.25608 | -92.36214 | 27008 ft | 554 kts | 87° |
| 2026-05-04 22:00 | 31.25676 | -92.31732 | 27003 ft | 554 kts | 88° |
| 2026-05-04 22:00 | 31.25750 | -92.27212 | 27004 ft | 554 kts | 88° |
| 2026-05-04 22:01 | 31.25830 | -92.22733 | 27007 ft | 553 kts | 87° |
| 2026-05-04 22:01 | 31.25915 | -92.18240 | 27009 ft | 553 kts | 87° |
| 2026-05-04 22:01 | 31.26006 | -92.13713 | 27011 ft | 553 kts | 87° |
| 2026-05-04 22:01 | 31.26101 | -92.09268 | 27013 ft | 553 kts | 87° |
| 2026-05-04 22:02 | 31.26204 | -92.04707 | 27015 ft | 553 kts | 87° |
| 2026-05-04 22:02 | 31.26307 | -92.00231 | 27017 ft | 553 kts | 87° |
| 2026-05-04 22:02 | 31.26374 | -91.95776 | 27018 ft | 553 kts | 88° |
| 2026-05-04 22:02 | 31.26425 | -91.91228 | 27020 ft | 553 kts | 88° |
| 2026-05-04 22:03 | 31.26479 | -91.86768 | 27021 ft | 553 kts | 88° |
| 2026-05-04 22:03 | 31.26541 | -91.82224 | 27022 ft | 553 kts | 88° |
| 2026-05-04 22:03 | 31.26608 | -91.77747 | 27024 ft | 553 kts | 87° |
| 2026-05-04 22:03 | 31.26680 | -91.73235 | 27025 ft | 553 kts | 87° |
| 2026-05-04 22:04 | 31.26758 | -91.68782 | 27026 ft | 553 kts | 87° |
| 2026-05-04 22:04 | 31.26843 | -91.64278 | 27027 ft | 553 kts | 87° |
| 2026-05-04 22:04 | 31.26934 | -91.59750 | 27028 ft | 554 kts | 87° |
| 2026-05-04 22:04 | 31.27029 | -91.55288 | 27030 ft | 554 kts | 87° |
| 2026-05-04 22:05 | 31.27132 | -91.50792 | 27031 ft | 554 kts | 86° |
| 2026-05-04 22:05 | 31.27241 | -91.46267 | 27033 ft | 554 kts | 86° |
| 2026-05-04 22:05 | 31.27327 | -91.41825 | 27034 ft | 554 kts | 87° |
| 2026-05-04 22:05 | 31.27384 | -91.37308 | 27034 ft | 554 kts | 87° |
| 2026-05-04 22:06 | 31.27443 | -91.32790 | 27028 ft | 554 kts | 88° |
| 2026-05-04 22:06 | 31.27508 | -91.28268 | 27026 ft | 554 kts | 88° |
| 2026-05-04 22:06 | 31.27576 | -91.23801 | 27027 ft | 554 kts | 88° |
| 2026-05-04 22:06 | 31.27651 | -91.19267 | 27027 ft | 554 kts | 88° |
| 2026-05-04 22:07 | 31.27730 | -91.14802 | 27027 ft | 554 kts | 88° |
| 2026-05-04 22:07 | 31.27800 | -91.10309 | 27028 ft | 554 kts | 88° |
| 2026-05-04 22:07 | 31.27885 | -91.05807 | 27028 ft | 553 kts | 87° |
| 2026-05-04 22:07 | 31.27985 | -91.01302 | 27032 ft | 554 kts | 87° |
| 2026-05-04 22:08 | 31.28102 | -90.96832 | 27033 ft | 553 kts | 88° |
| 2026-05-04 22:08 | 31.28161 | -90.92307 | 27036 ft | 554 kts | 88° |
| 2026-05-04 22:08 | 31.28260 | -90.87846 | 27035 ft | 554 kts | 87° |
| 2026-05-04 22:08 | 31.28335 | -90.83323 | 27037 ft | 554 kts | 88° |
| 2026-05-04 22:09 | 31.28389 | -90.78825 | 27040 ft | 554 kts | 88° |
| 2026-05-04 22:09 | 31.28443 | -90.74335 | 27045 ft | 554 kts | 88° |
| 2026-05-04 22:09 | 31.28530 | -90.69822 | 27040 ft | 554 kts | 86° |
| 2026-05-04 22:09 | 31.28674 | -90.65321 | 27037 ft | 555 kts | 87° |
| 2026-05-04 22:10 | 31.28754 | -90.60837 | 27043 ft | 555 kts | 86° |
| 2026-05-04 22:10 | 31.28900 | -90.56316 | 27044 ft | 555 kts | 85° |
| 2026-05-04 22:10 | 31.29093 | -90.51816 | 27044 ft | 555 kts | 85° |
| 2026-05-04 22:10 | 31.29267 | -90.47298 | 27044 ft | 555 kts | 86° |
| 2026-05-04 22:11 | 31.29441 | -90.42807 | 27048 ft | 556 kts | 85° |
| 2026-05-04 22:11 | 31.29629 | -90.38255 | 27047 ft | 556 kts | 85° |
| 2026-05-04 22:11 | 31.29830 | -90.33746 | 27037 ft | 556 kts | 85° |
| 2026-05-04 22:11 | 31.30057 | -90.29218 | 27036 ft | 556 kts | 85° |
| 2026-05-04 22:12 | 31.30094 | -90.24719 | 27086 ft | 554 kts | 98° |
| 2026-05-04 22:12 | 31.29508 | -90.20256 | 27049 ft | 555 kts | 98° |
| 2026-05-04 22:12 | 31.28928 | -90.15800 | 27033 ft | 555 kts | 98° |
| 2026-05-04 22:12 | 31.28371 | -90.11386 | 27032 ft | 555 kts | 98° |
| 2026-05-04 22:13 | 31.27811 | -90.06902 | 27033 ft | 555 kts | 97° |
| 2026-05-04 22:13 | 31.27258 | -90.02449 | 27036 ft | 555 kts | 97° |
| 2026-05-04 22:13 | 31.26710 | -89.97978 | 27039 ft | 556 kts | 97° |
| 2026-05-04 22:13 | 31.26166 | -89.93503 | 27040 ft | 556 kts | 97° |
| 2026-05-04 22:14 | 31.25624 | -89.89003 | 27043 ft | 556 kts | 97° |
| 2026-05-04 22:14 | 31.25086 | -89.84500 | 27044 ft | 556 kts | 97° |
| 2026-05-04 22:14 | 31.24557 | -89.80022 | 27046 ft | 556 kts | 97° |
| 2026-05-04 22:14 | 31.24002 | -89.75578 | 27049 ft | 557 kts | 98° |
| 2026-05-04 22:15 | 31.23395 | -89.71110 | 27047 ft | 557 kts | 98° |
| 2026-05-04 22:15 | 31.22791 | -89.66655 | 27044 ft | 557 kts | 98° |
| 2026-05-04 22:15 | 31.22206 | -89.62182 | 27045 ft | 557 kts | 98° |
| 2026-05-04 22:15 | 31.21627 | -89.57667 | 27048 ft | 558 kts | 97° |
| 2026-05-04 22:16 | 31.21061 | -89.53207 | 27043 ft | 558 kts | 97° |
| 2026-05-04 22:16 | 31.20499 | -89.48728 | 27041 ft | 558 kts | 97° |
| 2026-05-04 22:16 | 31.19944 | -89.44265 | 27041 ft | 559 kts | 97° |
| 2026-05-04 22:16 | 31.19390 | -89.39757 | 27042 ft | 559 kts | 97° |
| 2026-05-04 22:17 | 31.18846 | -89.35295 | 27044 ft | 559 kts | 97° |
| 2026-05-04 22:17 | 31.18305 | -89.30795 | 27034 ft | 559 kts | 97° |
| 2026-05-04 22:17 | 31.17751 | -89.26268 | 27036 ft | 559 kts | 98° |
| 2026-05-04 22:17 | 31.17159 | -89.21796 | 27033 ft | 559 kts | 98° |
| 2026-05-04 22:18 | 31.16564 | -89.17332 | 27036 ft | 559 kts | 98° |
| 2026-05-04 22:18 | 31.15975 | -89.12852 | 27041 ft | 559 kts | 98° |
| 2026-05-04 22:18 | 31.15387 | -89.08318 | 27038 ft | 560 kts | 98° |
| 2026-05-04 22:18 | 31.14820 | -89.03862 | 27038 ft | 560 kts | 98° |
| 2026-05-04 22:19 | 31.14257 | -88.99380 | 27037 ft | 560 kts | 98° |
| 2026-05-04 22:19 | 31.13705 | -88.94897 | 27038 ft | 560 kts | 97° |
| 2026-05-04 22:19 | 31.13158 | -88.90382 | 27039 ft | 560 kts | 98° |
| 2026-05-04 22:19 | 31.12623 | -88.85884 | 27041 ft | 560 kts | 97° |
| 2026-05-04 22:20 | 31.12100 | -88.81406 | 27041 ft | 560 kts | 97° |
| 2026-05-04 22:20 | 31.11541 | -88.76885 | 27042 ft | 560 kts | 98° |
| 2026-05-04 22:20 | 31.10943 | -88.72389 | 27050 ft | 561 kts | 99° |
| 2026-05-04 22:20 | 31.10348 | -88.67900 | 27053 ft | 561 kts | 98° |
| 2026-05-04 22:21 | 31.09775 | -88.63380 | 27059 ft | 561 kts | 98° |
| 2026-05-04 22:21 | 31.09211 | -88.58830 | 27066 ft | 561 kts | 98° |
| 2026-05-04 22:21 | 31.08661 | -88.54324 | 27070 ft | 561 kts | 98° |
| 2026-05-04 22:21 | 31.08122 | -88.49834 | 27070 ft | 562 kts | 98° |
| 2026-05-04 22:22 | 31.07591 | -88.45321 | 27071 ft | 562 kts | 97° |
| 2026-05-04 22:22 | 31.07043 | -88.40829 | 27073 ft | 562 kts | 98° |
| 2026-05-04 22:22 | 31.06454 | -88.36295 | 27070 ft | 563 kts | 98° |
| 2026-05-04 22:22 | 31.05875 | -88.31827 | 27065 ft | 563 kts | 99° |
| 2026-05-04 22:23 | 31.05302 | -88.27313 | 27064 ft | 563 kts | 98° |
| 2026-05-04 22:23 | 31.04742 | -88.22791 | 27065 ft | 563 kts | 98° |
| 2026-05-04 22:23 | 31.04194 | -88.18283 | 27062 ft | 563 kts | 98° |
| 2026-05-04 22:23 | 31.03597 | -88.13739 | 27063 ft | 563 kts | 99° |
| 2026-05-04 22:24 | 31.02972 | -88.09278 | 27064 ft | 563 kts | 99° |
| 2026-05-04 22:24 | 31.02343 | -88.04759 | 27065 ft | 563 kts | 99° |
| 2026-05-04 22:24 | 31.01735 | -88.00223 | 27065 ft | 563 kts | 99° |
| 2026-05-04 22:24 | 31.01149 | -87.95731 | 27070 ft | 563 kts | 99° |
| 2026-05-04 22:25 | 31.00571 | -87.91201 | 27072 ft | 563 kts | 98° |
| 2026-05-04 22:25 | 31.00008 | -87.86683 | 27072 ft | 563 kts | 98° |
| 2026-05-04 22:25 | 30.99450 | -87.82232 | 27074 ft | 563 kts | 99° |
| 2026-05-04 22:25 | 30.98821 | -87.77694 | 27078 ft | 563 kts | 100° |
| 2026-05-04 22:26 | 30.98172 | -87.73178 | 27077 ft | 563 kts | 100° |
| 2026-05-04 22:26 | 30.97543 | -87.68731 | 27079 ft | 563 kts | 99° |
| 2026-05-04 22:26 | 30.96931 | -87.64186 | 27077 ft | 563 kts | 99° |
| 2026-05-04 22:26 | 30.96339 | -87.59680 | 27077 ft | 563 kts | 99° |
| 2026-05-04 22:27 | 30.95760 | -87.55173 | 27077 ft | 563 kts | 98° |
| 2026-05-04 22:27 | 30.95182 | -87.50682 | 27076 ft | 564 kts | 99° |
| 2026-05-04 22:27 | 30.94530 | -87.46131 | 27073 ft | 564 kts | 100° |
| 2026-05-04 22:27 | 30.93855 | -87.41670 | 27068 ft | 564 kts | 100° |
| 2026-05-04 22:28 | 30.93167 | -87.37120 | 27065 ft | 565 kts | 100° |
| 2026-05-04 22:28 | 30.92518 | -87.32633 | 27056 ft | 565 kts | 100° |
| 2026-05-04 22:28 | 30.91894 | -87.28131 | 27054 ft | 565 kts | 99° |
| 2026-05-04 22:28 | 30.91285 | -87.23618 | 27054 ft | 565 kts | 99° |
| 2026-05-04 22:29 | 30.90679 | -87.19118 | 27054 ft | 565 kts | 100° |
| 2026-05-04 22:29 | 30.90041 | -87.14584 | 27054 ft | 564 kts | 100° |
| 2026-05-04 22:29 | 30.89408 | -87.10086 | 27054 ft | 564 kts | 100° |
| 2026-05-04 22:29 | 30.88765 | -87.05591 | 27055 ft | 564 kts | 100° |
| 2026-05-04 22:30 | 30.88105 | -87.01063 | 27055 ft | 564 kts | 101° |
| 2026-05-04 22:30 | 30.87440 | -86.96588 | 27055 ft | 564 kts | 101° |
| 2026-05-04 22:30 | 30.86762 | -86.92102 | 27054 ft | 564 kts | 101° |
| 2026-05-04 22:30 | 30.86065 | -86.87584 | 27052 ft | 564 kts | 101° |
| 2026-05-04 22:31 | 30.85359 | -86.83089 | 27052 ft | 564 kts | 101° |
| 2026-05-04 22:31 | 30.84639 | -86.78587 | 27053 ft | 564 kts | 102° |
| 2026-05-04 22:31 | 30.83901 | -86.74110 | 27056 ft | 564 kts | 103° |
| 2026-05-04 22:31 | 30.83062 | -86.69630 | 27059 ft | 564 kts | 102° |
| 2026-05-04 22:32 | 30.82695 | -86.65181 | 27090 ft | 562 kts | 92° |
| 2026-05-04 22:32 | 30.82578 | -86.60566 | 27072 ft | 562 kts | 91° |
| 2026-05-04 22:32 | 30.82538 | -86.56032 | 27070 ft | 563 kts | 91° |
| 2026-05-04 22:32 | 30.82461 | -86.51517 | 27070 ft | 563 kts | 91° |
| 2026-05-04 22:33 | 30.82362 | -86.46915 | 27070 ft | 563 kts | 91° |
| 2026-05-04 22:33 | 30.82270 | -86.42355 | 27071 ft | 563 kts | 91° |
| 2026-05-04 22:33 | 30.82170 | -86.37825 | 27071 ft | 563 kts | 91° |
| 2026-05-04 22:33 | 30.82044 | -86.33260 | 27066 ft | 564 kts | 92° |
| 2026-05-04 22:34 | 30.81894 | -86.28719 | 27062 ft | 564 kts | 93° |
| 2026-05-04 22:34 | 30.81747 | -86.24134 | 27062 ft | 563 kts | 92° |
| 2026-05-04 22:34 | 30.81600 | -86.19614 | 27063 ft | 563 kts | 93° |
| 2026-05-04 22:34 | 30.81435 | -86.15041 | 27063 ft | 563 kts | 93° |
| 2026-05-04 22:35 | 30.81332 | -86.10444 | 27062 ft | 563 kts | 91° |
| 2026-05-04 22:35 | 30.81324 | -86.05878 | 27058 ft | 563 kts | 89° |
| 2026-05-04 22:35 | 30.81385 | -86.01383 | 27055 ft | 564 kts | 89° |
| 2026-05-04 22:35 | 30.81422 | -85.96778 | 27051 ft | 564 kts | 90° |
| 2026-05-04 22:36 | 30.81442 | -85.92252 | 27048 ft | 564 kts | 90° |
| 2026-05-04 22:36 | 30.81448 | -85.87690 | 27046 ft | 564 kts | 90° |
| 2026-05-04 22:36 | 30.81431 | -85.83092 | 27044 ft | 564 kts | 90° |
| 2026-05-04 22:36 | 30.81419 | -85.78557 | 27042 ft | 564 kts | 90° |
| 2026-05-04 22:37 | 30.81402 | -85.73985 | 27041 ft | 564 kts | 91° |
| 2026-05-04 22:37 | 30.81354 | -85.69434 | 27039 ft | 564 kts | 91° |
| 2026-05-04 22:37 | 30.81298 | -85.64840 | 27038 ft | 565 kts | 91° |
| 2026-05-04 22:37 | 30.81247 | -85.60252 | 27039 ft | 565 kts | 91° |
| 2026-05-04 22:38 | 30.81213 | -85.55731 | 27040 ft | 565 kts | 90° |
| 2026-05-04 22:38 | 30.81218 | -85.51125 | 27041 ft | 565 kts | 90° |
| 2026-05-04 22:38 | 30.81223 | -85.46581 | 27042 ft | 565 kts | 90° |
| 2026-05-04 22:38 | 30.81219 | -85.41975 | 27043 ft | 566 kts | 90° |
| 2026-05-04 22:39 | 30.81202 | -85.37406 | 27044 ft | 566 kts | 90° |
| 2026-05-04 22:39 | 30.81154 | -85.32813 | 27037 ft | 566 kts | 91° |
| 2026-05-04 22:39 | 30.81102 | -85.28214 | 27035 ft | 566 kts | 91° |
| 2026-05-04 22:39 | 30.81056 | -85.23669 | 27035 ft | 566 kts | 91° |
| 2026-05-04 22:40 | 30.81001 | -85.19084 | 27036 ft | 566 kts | 91° |
| 2026-05-04 22:40 | 30.80995 | -85.14495 | 27036 ft | 566 kts | 90° |
| 2026-05-04 22:40 | 30.81006 | -85.09898 | 27037 ft | 566 kts | 90° |
| 2026-05-04 22:40 | 30.81009 | -85.05312 | 27037 ft | 566 kts | 90° |
| 2026-05-04 22:41 | 30.80996 | -85.00766 | 27038 ft | 566 kts | 91° |
| 2026-05-04 22:41 | 30.80952 | -84.96191 | 27038 ft | 566 kts | 91° |
| 2026-05-04 22:41 | 30.80903 | -84.91621 | 27039 ft | 566 kts | 91° |
| 2026-05-04 22:41 | 30.80859 | -84.87014 | 27042 ft | 566 kts | 91° |
| 2026-05-04 22:42 | 30.80811 | -84.82479 | 27044 ft | 566 kts | 91° |
| 2026-05-04 22:42 | 30.80807 | -84.77860 | 27046 ft | 566 kts | 90° |
| 2026-05-04 22:42 | 30.80813 | -84.73284 | 27048 ft | 566 kts | 90° |
| 2026-05-04 22:42 | 30.80809 | -84.68687 | 27050 ft | 567 kts | 90° |
| 2026-05-04 22:43 | 30.80793 | -84.64083 | 27050 ft | 567 kts | 91° |
| 2026-05-04 22:43 | 30.80764 | -84.59546 | 27051 ft | 567 kts | 91° |
| 2026-05-04 22:43 | 30.80711 | -84.54940 | 27051 ft | 567 kts | 91° |
| 2026-05-04 22:43 | 30.80660 | -84.50388 | 27052 ft | 567 kts | 91° |
| 2026-05-04 22:44 | 30.80607 | -84.45760 | 27052 ft | 567 kts | 91° |
| 2026-05-04 22:44 | 30.80525 | -84.41221 | 27051 ft | 568 kts | 92° |
| 2026-05-04 22:44 | 30.80429 | -84.36580 | 27050 ft | 568 kts | 91° |
| 2026-05-04 22:44 | 30.80343 | -84.32015 | 27041 ft | 568 kts | 92° |
| 2026-05-04 22:45 | 30.80258 | -84.27371 | 27038 ft | 568 kts | 91° |
| 2026-05-04 22:45 | 30.80186 | -84.18173 | 27040 ft | 568 kts | 91° |
| 2026-05-04 22:45 | 30.80145 | -84.13618 | 27045 ft | 568 kts | 91° |
| 2026-05-04 22:46 | 30.80092 | -84.09004 | 27051 ft | 568 kts | 91° |
| 2026-05-04 22:46 | 30.80012 | -84.04410 | 27057 ft | 568 kts | 92° |
| 2026-05-04 22:46 | 30.79911 | -83.99786 | 27062 ft | 567 kts | 92° |
| 2026-05-04 22:46 | 30.79819 | -83.95213 | 27065 ft | 567 kts | 92° |
| 2026-05-04 22:47 | 30.79718 | -83.90659 | 27066 ft | 567 kts | 92° |
| 2026-05-04 22:47 | 30.79619 | -83.86052 | 27067 ft | 568 kts | 91° |
| 2026-05-04 22:47 | 30.79559 | -83.81448 | 27067 ft | 568 kts | 91° |
| 2026-05-04 22:47 | 30.79499 | -83.76884 | 27067 ft | 568 kts | 91° |
| 2026-05-04 22:48 | 30.79428 | -83.72274 | 27066 ft | 568 kts | 91° |
| 2026-05-04 22:48 | 30.79346 | -83.67670 | 27062 ft | 568 kts | 92° |
| 2026-05-04 22:48 | 30.79254 | -83.63098 | 27057 ft | 568 kts | 92° |
| 2026-05-04 22:48 | 30.79148 | -83.58488 | 27052 ft | 569 kts | 92° |
| 2026-05-04 22:49 | 30.79013 | -83.53937 | 27048 ft | 569 kts | 92° |
| 2026-05-04 22:49 | 30.78869 | -83.49330 | 27044 ft | 569 kts | 92° |
| 2026-05-04 22:49 | 30.78729 | -83.44679 | 27043 ft | 569 kts | 92° |
| 2026-05-04 22:49 | 30.78572 | -83.40302 | 27044 ft | 569 kts | 93° |
| 2026-05-04 22:50 | 30.78308 | -83.35683 | 27070 ft | 566 kts | 102° |
| 2026-05-04 22:50 | 30.77170 | -83.31346 | 27109 ft | 555 kts | 120° |
| 2026-05-04 22:50 | 30.75078 | -83.27671 | 27115 ft | 541 kts | 138° |
| 2026-05-04 22:50 | 30.72254 | -83.24960 | 27101 ft | 528 kts | 150° |
| 2026-05-04 22:51 | 30.69192 | -83.22556 | 27043 ft | 529 kts | 150° |
| 2026-05-04 22:51 | 30.66178 | -83.20147 | 27036 ft | 530 kts | 150° |
| 2026-05-04 22:51 | 30.63131 | -83.17705 | 27036 ft | 530 kts | 150° |
| 2026-05-04 22:51 | 30.60101 | -83.15276 | 27036 ft | 530 kts | 150° |
| 2026-05-04 22:52 | 30.57057 | -83.12836 | 27036 ft | 530 kts | 150° |
| 2026-05-04 22:52 | 30.54014 | -83.10394 | 27036 ft | 531 kts | 150° |
| 2026-05-04 22:52 | 30.50972 | -83.07954 | 27037 ft | 531 kts | 150° |
| 2026-05-04 22:52 | 30.47939 | -83.05521 | 27037 ft | 531 kts | 150° |
| 2026-05-04 22:53 | 30.44902 | -83.03124 | 27037 ft | 531 kts | 150° |
| 2026-05-04 22:53 | 30.41829 | -83.00733 | 27037 ft | 531 kts | 150° |
| 2026-05-04 22:53 | 30.38768 | -82.98354 | 27037 ft | 531 kts | 151° |
| 2026-05-04 22:53 | 30.35711 | -82.95978 | 27037 ft | 532 kts | 151° |
| 2026-05-04 22:54 | 30.32652 | -82.93599 | 27038 ft | 532 kts | 151° |
| 2026-05-04 22:54 | 30.29568 | -82.91202 | 27038 ft | 532 kts | 151° |
| 2026-05-04 22:54 | 30.26489 | -82.88808 | 27038 ft | 533 kts | 151° |
| 2026-05-04 22:54 | 30.23421 | -82.86427 | 27038 ft | 533 kts | 151° |
| 2026-05-04 22:55 | 30.20344 | -82.84086 | 27038 ft | 532 kts | 152° |
| 2026-05-04 22:55 | 30.17209 | -82.81725 | 26288 ft | 548 kts | 152° |
| 2026-05-04 22:55 | 30.13961 | -82.79305 | 24847 ft | 567 kts | 152° |
| 2026-05-04 22:55 | 30.10601 | -82.76888 | 23630 ft | 572 kts | 152° |
| 2026-05-04 22:56 | 30.07216 | -82.74490 | 22491 ft | 572 kts | 152° |
| 2026-05-04 22:56 | 30.03962 | -82.72214 | 21388 ft | 538 kts | 153° |
| 2026-05-04 22:56 | 30.00809 | -82.70041 | 20295 ft | 518 kts | 152° |
| 2026-05-04 22:56 | 29.97794 | -82.67993 | 19246 ft | 512 kts | 153° |
| 2026-05-04 22:57 | 29.94633 | -82.65900 | 18169 ft | 528 kts | 153° |
| 2026-05-04 22:57 | 29.91418 | -82.63799 | 17104 ft | 541 kts | 153° |
| 2026-05-04 22:57 | 29.88087 | -82.61691 | 16036 ft | 552 kts | 153° |
| 2026-05-04 22:57 | 29.84699 | -82.59582 | 14964 ft | 562 kts | 153° |
| 2026-05-04 22:58 | 29.81254 | -82.57464 | 13891 ft | 570 kts | 153° |
| 2026-05-04 22:58 | 29.77687 | -82.55304 | 12796 ft | 576 kts | 153° |
| 2026-05-04 22:58 | 29.74123 | -82.53194 | 11729 ft | 580 kts | 153° |
| 2026-05-04 22:58 | 29.70547 | -82.51109 | 11088 ft | 574 kts | 155° |
| 2026-05-04 22:59 | 29.67028 | -82.49136 | 10970 ft | 559 kts | 155° |
| 2026-05-04 22:59 | 29.63581 | -82.47208 | 10996 ft | 544 kts | 155° |
| 2026-05-04 22:59 | 29.60226 | -82.45345 | 11002 ft | 532 kts | 155° |
| 2026-05-04 22:59 | 29.56875 | -82.43494 | 11003 ft | 532 kts | 155° |
| 2026-05-04 23:00 | 29.53573 | -82.41679 | 11003 ft | 531 kts | 155° |
| 2026-05-04 23:00 | 29.50254 | -82.39861 | 11004 ft | 530 kts | 155° |
| 2026-05-04 23:00 | 29.46884 | -82.38021 | 11004 ft | 529 kts | 155° |
| 2026-05-04 23:00 | 29.43599 | -82.36230 | 11004 ft | 528 kts | 155° |
| 2026-05-04 23:01 | 29.40241 | -82.34400 | 11001 ft | 527 kts | 156° |
| 2026-05-04 23:01 | 29.36929 | -82.32598 | 10996 ft | 526 kts | 156° |
| 2026-05-04 23:01 | 29.33632 | -82.30807 | 10991 ft | 526 kts | 156° |
| 2026-05-04 23:01 | 29.30338 | -82.29010 | 10986 ft | 525 kts | 155° |
| 2026-05-04 23:02 | 29.27026 | -82.27202 | 10988 ft | 524 kts | 156° |
| 2026-05-04 23:02 | 29.23724 | -82.25457 | 10988 ft | 524 kts | 156° |
| 2026-05-04 23:02 | 29.20425 | -82.23737 | 10983 ft | 523 kts | 156° |
| 2026-05-04 23:02 | 29.17367 | -82.21530 | 11050 ft | 521 kts | 138° |
| 2026-05-04 23:03 | 29.14939 | -82.18451 | 11004 ft | 522 kts | 130° |
| 2026-05-04 23:03 | 29.12658 | -82.15174 | 10984 ft | 523 kts | 129° |
| 2026-05-04 23:03 | 29.10403 | -82.11932 | 10982 ft | 522 kts | 130° |
| 2026-05-04 23:03 | 29.08091 | -82.08693 | 10982 ft | 523 kts | 130° |
| 2026-05-04 23:04 | 29.05803 | -82.05490 | 10982 ft | 523 kts | 130° |
| 2026-05-04 23:04 | 29.03511 | -82.02237 | 10982 ft | 523 kts | 129° |
| 2026-05-04 23:04 | 29.01234 | -81.98975 | 10982 ft | 523 kts | 129° |
| 2026-05-04 23:04 | 28.98966 | -81.95709 | 10982 ft | 523 kts | 129° |
| 2026-05-04 23:05 | 28.96716 | -81.92451 | 10982 ft | 523 kts | 129° |
| 2026-05-04 23:05 | 28.94482 | -81.89206 | 10982 ft | 523 kts | 129° |
| 2026-05-04 23:05 | 28.92188 | -81.85945 | 10982 ft | 523 kts | 130° |
| 2026-05-04 23:05 | 28.89905 | -81.82770 | 10982 ft | 522 kts | 131° |
| 2026-05-04 23:06 | 28.87554 | -81.79614 | 10983 ft | 522 kts | 131° |
| 2026-05-04 23:06 | 28.85210 | -81.76447 | 10984 ft | 522 kts | 130° |
| 2026-05-04 23:06 | 28.82959 | -81.73209 | 10984 ft | 523 kts | 128° |
| 2026-05-04 23:06 | 28.80720 | -81.69901 | 10983 ft | 523 kts | 129° |
| 2026-05-04 23:07 | 28.78484 | -81.66643 | 10983 ft | 523 kts | 129° |
| 2026-05-04 23:07 | 28.76274 | -81.63442 | 10982 ft | 501 kts | 129° |
| 2026-05-04 23:07 | 28.74013 | -81.60743 | 10869 ft | 432 kts | 152° |
| 2026-05-04 23:07 | 28.71448 | -81.59758 | 10459 ft | 360 kts | 172° |
| 2026-05-04 23:08 | 28.69170 | -81.59367 | 10367 ft | 307 kts | 173° |
| 2026-05-04 23:08 | 28.67190 | -81.59046 | 10162 ft | 266 kts | 174° |
| 2026-05-04 23:08 | 28.65392 | -81.58770 | 9341 ft | 257 kts | 174° |
| 2026-05-04 23:08 | 28.63663 | -81.58510 | 8447 ft | 250 kts | 173° |
| 2026-05-04 23:09 | 28.61970 | -81.58257 | 7616 ft | 240 kts | 173° |
| 2026-05-04 23:09 | 28.60366 | -81.58016 | 6875 ft | 228 kts | 173° |
| 2026-05-04 23:09 | 28.58769 | -81.57823 | 6456 ft | 240 kts | 174° |
| 2026-05-04 23:09 | 28.57187 | -81.57651 | 6021 ft | 219 kts | 174° |
| 2026-05-04 23:10 | 28.55713 | -81.57502 | 5834 ft | 208 kts | 182° |
| 2026-05-04 23:10 | 28.54547 | -81.58292 | 5839 ft | 209 kts | 240° |
| 2026-05-04 23:10 | 28.53786 | -81.59862 | 5572 ft | 243 kts | 239° |
| 2026-05-04 23:10 | 28.53011 | -81.61590 | 5299 ft | 237 kts | 240° |
| 2026-05-04 23:11 | 28.52359 | -81.63205 | 4887 ft | 216 kts | 243° |
| 2026-05-04 23:11 | 28.51640 | -81.64691 | 4387 ft | 209 kts | 212° |
| 2026-05-04 23:11 | 28.50342 | -81.64852 | 3969 ft | 199 kts | 156° |
| 2026-05-04 23:11 | 28.49040 | -81.64223 | 3563 ft | 210 kts | 155° |
| 2026-05-04 23:12 | 28.47765 | -81.63400 | 3175 ft | 213 kts | 130° |
| 2026-05-04 23:12 | 28.47176 | -81.61918 | 2791 ft | 203 kts | 96° |
| 2026-05-04 23:12 | 28.47121 | -81.60456 | 2820 ft | 170 kts | 94° |
| 2026-05-04 23:12 | 28.47077 | -81.59112 | 2811 ft | 180 kts | 95° |
| 2026-05-04 23:13 | 28.47013 | -81.57626 | 2362 ft | 195 kts | 95° |
| 2026-05-04 23:13 | 28.46935 | -81.56087 | 1918 ft | 188 kts | 95° |
| 2026-05-04 23:13 | 28.46871 | -81.54707 | 1855 ft | 175 kts | 93° |
| 2026-05-04 23:13 | 28.46983 | -81.53331 | 1920 ft | 174 kts | 70° |
| 2026-05-04 23:14 | 28.47457 | -81.52096 | 1838 ft | 160 kts | 69° |
| 2026-05-04 23:14 | 28.47903 | -81.50957 | 1708 ft | 156 kts | 69° |
| 2026-05-04 23:14 | 28.48372 | -81.49802 | 1662 ft | 169 kts | 68° |
| 2026-05-04 23:14 | 28.48927 | -81.48531 | 1701 ft | 188 kts | 68° |
| 2026-05-04 23:15 | 28.49482 | -81.47182 | 1659 ft | 186 kts | 68° |
| 2026-05-04 23:15 | 28.50032 | -81.45877 | 1554 ft | 182 kts | 68° |
| 2026-05-04 23:15 | 28.50538 | -81.44555 | 1502 ft | 182 kts | 70° |
| 2026-05-04 23:15 | 28.51010 | -81.43207 | 1478 ft | 181 kts | 72° |
| 2026-05-04 23:16 | 28.51459 | -81.41880 | 1264 ft | 179 kts | 71° |
| 2026-05-04 23:16 | 28.51926 | -81.40540 | 1050 ft | 179 kts | 72° |
| 2026-05-04 23:16 | 28.52372 | -81.39256 | 941 ft | 170 kts | 71° |
| 2026-05-04 23:16 | 28.52814 | -81.38038 | 811 ft | 164 kts | 71° |
| 2026-05-04 23:17 | 28.53227 | -81.36827 | 622 ft | 169 kts | 73° |
| 2026-05-04 23:17 | 28.53678 | -81.35536 | 436 ft | 177 kts | 70° |
| 2026-05-04 23:17 | 28.54147 | -81.34293 | 176 ft | 168 kts | 69° |
| 2026-05-04 23:17 | 28.54567 | -81.33160 | 116 ft | 108 kts | 61° |
| 2026-05-04 23:18 | 28.54741 | -81.32798 | 115 ft | 30 kts | 42° |
| 2026-05-04 23:18 | 28.54812 | -81.32738 | 115 ft | 0 kts | 35° |
| 2026-05-04 23:19 | 28.54815 | -81.32735 | 115 ft | 3 kts | 35° |
| 2026-05-04 23:19 | 28.54862 | -81.32709 | 115 ft | 8 kts | 350° |
| 2026-05-04 23:19 | 28.54865 | -81.32793 | 115 ft | 15 kts | 246° |
| 2026-05-04 23:19 | 28.54810 | -81.32935 | 115 ft | 22 kts | 248° |
| 2026-05-04 23:20 | 28.54753 | -81.33086 | 115 ft | 17 kts | 245° |
| 2026-05-04 23:20 | 28.54784 | -81.33173 | 115 ft | 5 kts | 341° |